Time;durP1;ratioP1;P1;durP2;ratioP2;P2;SDS_P1;SDS_P2;PMS_P1;PMS_P2;Temp;Humidity;BMP_temperature;BMP_pressure;BME280_temperature;BME280_humidity;BME280_pressure;Samples;Min_cycle;Max_cycle;Signal;HPM_P1;HPM_P2
2023/03/01 00:01:05;;;;;;;16.95;6.65;;;;;;;5.25;100.00;98471.97;5115332;27;20022;-79
2023/03/01 00:03:32;;;;;;;14.55;7.05;;;;;;;5.25;100.00;98472.84;5110539;28;20479;-79
2023/03/01 00:05:58;;;;;;;14.57;7.10;;;;;;;5.15;100.00;98465.16;5095455;28;20095;-80
2023/03/01 00:08:24;;;;;;;13.38;7.40;;;;;;;5.17;100.00;98458.06;5115127;27;20031;-80
2023/03/01 00:11:03;;;;;;;13.80;6.00;;;;;;;5.13;100.00;98459.91;5140201;27;20027;-80
2023/03/01 00:13:29;;;;;;;13.63;6.53;;;;;;;5.06;100.00;98447.72;5127284;27;20027;-80
2023/03/01 00:15:54;;;;;;;12.68;6.88;;;;;;;5.04;100.00;98438.94;5126264;27;20031;-80
2023/03/01 00:18:20;;;;;;;14.70;6.30;;;;;;;5.11;100.00;98445.78;5114696;27;20380;-80
2023/03/01 00:20:52;;;;;;;12.77;6.57;;;;;;;5.16;100.00;98437.75;5111257;27;20022;-80
2023/03/01 00:23:17;;;;;;;;;;;;;;;5.19;100.00;98435.88;5094110;28;20404;-80
2023/03/01 00:25:43;;;;;;;11.45;5.88;;;;;;;5.13;100.00;98428.09;5074104;28;19918;-79
2023/03/01 00:28:09;;;;;;;10.40;5.38;;;;;;;5.17;100.00;98428.88;5073593;28;20495;-79
2023/03/01 00:30:34;;;;;;;13.52;6.07;;;;;;;5.19;100.00;98430.56;5073863;28;20024;-79
2023/03/01 00:33:00;;;;;;;9.95;5.25;;;;;;;5.17;100.00;98426.22;5073769;28;20028;-79
2023/03/01 00:35:25;;;;;;;8.73;4.43;;;;;;;5.10;100.00;98417.56;5073472;28;20445;-79
2023/03/01 00:37:57;;;;;;;10.40;5.63;;;;;;;5.11;100.00;98424.59;5073720;28;20045;-79
2023/03/01 00:40:24;;;;;;;11.68;5.22;;;;;;;5.10;100.00;98416.69;5074525;28;20047;-79
2023/03/01 00:42:49;;;;;;;10.98;5.55;;;;;;;5.12;100.00;98413.09;5090679;28;20016;-78
2023/03/01 00:45:15;;;;;;;9.93;5.28;;;;;;;5.14;100.00;98424.50;5073424;28;20399;-78
2023/03/01 00:47:40;;;;;;;13.25;5.35;;;;;;;5.18;100.00;98417.34;5073687;28;20035;-79
2023/03/01 00:50:06;;;;;;;9.30;5.40;;;;;;;5.17;100.00;98416.47;5090583;28;20028;-79
2023/03/01 00:52:32;;;;;;;9.43;4.93;;;;;;;5.15;100.00;98417.44;5073479;28;20035;-79
2023/03/01 00:54:57;;;;;;;10.05;4.65;;;;;;;5.11;100.00;98398.06;5073301;28;20020;-79
2023/03/01 00:57:23;;;;;;;10.63;4.53;;;;;;;5.14;100.00;98405.94;5073293;28;20047;-81
2023/03/01 00:59:49;;;;;;;10.02;5.10;;;;;;;5.07;100.00;98396.44;5073654;28;20031;-79
2023/03/01 01:02:14;;;;;;;9.00;4.57;;;;;;;5.02;100.00;98382.41;5073369;28;20020;-79
2023/03/01 01:04:40;;;;;;;8.85;4.80;;;;;;;5.03;100.00;98378.84;5090329;28;20036;-79
2023/03/01 01:07:06;;;;;;;10.07;4.68;;;;;;;5.06;100.00;98362.00;5090189;28;20032;-79
2023/03/01 01:09:31;;;;;;;7.90;4.90;;;;;;;5.20;100.00;98383.72;5073186;28;20020;-79
2023/03/01 01:11:57;;;;;;;14.32;6.40;;;;;;;5.14;100.00;98382.06;5073148;28;20119;-79
2023/03/01 01:14:22;;;;;;;8.95;4.55;;;;;;;5.08;100.00;98382.25;5073334;28;20438;-80
2023/03/01 01:16:48;;;;;;;14.15;6.38;;;;;;;4.96;100.00;98373.75;5090315;28;20074;-79
2023/03/01 01:19:14;;;;;;;13.45;6.32;;;;;;;4.98;100.00;98382.53;5073215;28;20067;-79
2023/03/01 01:21:40;;;;;;;13.13;6.00;;;;;;;5.00;100.00;98383.38;5079785;27;20043;-79
2023/03/01 01:24:06;;;;;;;11.05;5.57;;;;;;;4.96;100.00;98392.31;5111137;28;20027;-79
2023/03/01 01:26:33;;;;;;;9.20;4.82;;;;;;;4.92;100.00;98392.38;5136602;27;20076;-79
2023/03/01 01:29:00;;;;;;;9.68;4.80;;;;;;;4.99;100.00;98394.88;5108345;28;20027;-79
2023/03/01 01:31:27;;;;;;;11.57;5.20;;;;;;;5.06;100.00;98400.00;5105562;28;20058;-79
2023/03/01 01:33:54;;;;;;;9.07;4.40;;;;;;;5.10;100.00;98414.91;5101590;28;20070;-80
2023/03/01 01:36:20;;;;;;;10.65;4.30;;;;;;;5.09;100.00;98406.97;5096521;28;20127;-80
2023/03/01 01:38:46;;;;;;;8.95;4.72;;;;;;;5.08;100.00;98413.19;5105402;28;20501;-79
2023/03/01 01:41:12;;;;;;;7.25;4.28;;;;;;;5.12;100.00;98414.84;5105298;28;20114;-79
2023/03/01 01:43:41;;;;;;;7.88;4.13;;;;;;;5.06;100.00;98404.41;5106299;28;20027;-79
2023/03/01 01:46:16;;;;;;;7.75;4.35;;;;;;;5.11;100.00;98411.31;5113739;28;20384;-80
2023/03/01 01:48:46;;;;;;;9.68;4.03;;;;;;;5.15;100.00;98406.81;5126194;28;20062;-79
2023/03/01 01:51:20;;;;;;;7.80;4.32;;;;;;;5.12;100.00;98393.63;5139584;27;20374;-79
2023/03/01 01:53:53;;;;;;;12.07;4.82;;;;;;;5.13;100.00;98400.69;5105291;28;20019;-79
2023/03/01 01:56:20;;;;;;;12.20;4.93;;;;;;;5.02;100.00;98403.63;5126941;28;20035;-79
2023/03/01 01:58:47;;;;;;;9.60;4.70;;;;;;;4.87;100.00;98388.13;5118346;28;20073;-79
2023/03/01 02:01:13;;;;;;;9.93;4.95;;;;;;;4.87;100.00;98404.91;5104454;28;20023;-79
2023/03/01 02:03:41;;;;;;;14.65;5.30;;;;;;;4.90;100.00;98404.81;5096531;28;20030;-79
2023/03/01 02:06:37;;;;;;;11.02;5.05;;;;;;;4.79;100.00;98403.34;5132424;27;20078;-79
2023/03/01 02:09:06;;;;;;;14.10;5.53;;;;;;;4.88;100.00;98411.94;5128368;27;20023;-79
2023/03/01 02:11:32;;;;;;;8.15;4.30;;;;;;;4.92;100.00;98421.53;5102316;28;20526;-79
2023/03/01 02:13:58;;;;;;;12.52;4.30;;;;;;;4.99;100.00;98424.03;5139821;27;20110;-79
2023/03/01 02:16:25;;;;;;;10.73;4.53;;;;;;;5.00;100.00;98429.31;5147113;27;20091;-79
2023/03/01 02:18:51;;;;;;;10.75;4.65;;;;;;;4.95;100.00;98417.09;5121257;27;20027;-79
2023/03/01 02:21:43;;;;;;;8.38;4.45;;;;;;;4.90;100.00;98423.38;5125760;27;20039;-79
2023/03/01 02:24:18;;;;;;;11.23;4.20;;;;;;;4.84;100.00;98412.03;5125836;27;20470;-80
2023/03/01 02:26:50;;;;;;;8.93;4.50;;;;;;;4.96;100.00;98418.81;5108437;27;20024;-79
2023/03/01 02:29:15;;;;;;;10.48;5.15;;;;;;;4.95;100.00;98417.09;5104099;27;20023;-80
2023/03/01 02:31:41;;;;;;;8.65;4.50;;;;;;;4.88;100.00;98419.91;5121177;27;20106;-80
2023/03/01 02:34:12;;;;;;;11.98;4.30;;;;;;;4.88;100.00;98411.94;5108507;27;20479;-80
2023/03/01 02:36:40;;;;;;;9.20;4.40;;;;;;;4.96;100.00;98411.72;5122715;27;20026;-78
2023/03/01 02:39:14;;;;;;;7.72;3.75;;;;;;;4.92;100.00;98413.59;5101369;27;20027;-80
2023/03/01 02:41:42;;;;;;;8.55;4.43;;;;;;;4.94;100.00;98410.91;5133867;27;20019;-78
2023/03/01 02:44:10;;;;;;;12.20;5.35;;;;;;;4.93;100.00;98410.03;5104269;27;20027;-78
2023/03/01 02:46:52;;;;;;;15.68;5.38;;;;;;;4.80;100.00;98403.28;5105504;27;20122;-78
2023/03/01 02:49:23;;;;;;;14.02;5.45;;;;;;;4.82;100.00;98396.19;5106938;27;20513;-79
2023/03/01 02:52:11;;;;;;;10.23;4.95;;;;;;;4.85;100.00;98401.41;5113921;27;20027;-79
2023/03/01 02:54:46;;;;;;;11.27;5.38;;;;;;;4.89;100.00;98397.75;5122753;27;20043;-80
2023/03/01 02:57:33;;;;;;;10.15;4.78;;;;;;;4.91;100.00;98403.03;5145574;27;20483;-80
2023/03/01 03:00:06;;;;;;;10.50;5.32;;;;;;;4.88;100.00;98401.34;5128606;27;20038;-79
2023/03/01 03:02:35;;;;;;;10.90;4.50;;;;;;;4.82;100.00;98400.63;5109574;27;20023;-79
2023/03/01 03:05:17;;;;;;;10.57;5.20;;;;;;;4.86;100.00;98411.09;5100297;27;20049;-79
2023/03/01 03:07:44;;;;;;;7.47;4.20;;;;;;;4.80;100.00;98400.66;5118625;27;20027;-80
2023/03/01 03:10:19;;;;;;;10.88;4.80;;;;;;;4.78;100.00;98394.53;5107918;27;20113;-80
2023/03/01 03:12:49;;;;;;;11.18;4.57;;;;;;;4.84;100.00;98406.75;5132306;27;20469;-81
2023/03/01 03:15:15;;;;;;;7.60;4.43;;;;;;;4.81;100.00;98404.19;5104724;27;20034;-80
2023/03/01 03:17:42;;;;;;;7.90;4.30;;;;;;;4.85;100.00;98412.03;5108282;27;20027;-80
2023/03/01 03:20:11;;;;;;;10.35;3.83;;;;;;;4.78;100.00;98404.25;5098353;27;20039;-79
2023/03/01 03:22:40;;;;;;;11.07;5.20;;;;;;;4.77;100.00;98403.38;5107773;27;20039;-80
2023/03/01 03:25:11;;;;;;;12.50;4.85;;;;;;;4.67;100.00;98388.63;5111621;28;20034;-80
2023/03/01 03:27:42;;;;;;;11.48;4.85;;;;;;;4.70;100.00;98400.94;5107755;27;20426;-81
2023/03/01 03:30:11;;;;;;;8.80;4.97;;;;;;;4.84;100.00;98415.56;5107839;27;20031;-79
2023/03/01 03:32:37;;;;;;;9.70;4.75;;;;;;;4.86;100.00;98412.91;5107548;27;20023;-79
2023/03/01 03:35:09;;;;;;;10.23;4.65;;;;;;;4.90;100.00;98419.84;5147194;27;20460;-79
2023/03/01 03:40:25;;;;;;;8.10;3.90;;;;;;;4.96;100.00;98432.06;5120913;27;20088;-79
2023/03/01 03:42:51;;;;;;;9.85;5.25;;;;;;;5.00;100.00;98429.31;5109150;27;20031;-79
2023/03/01 03:45:17;;;;;;;10.23;5.45;;;;;;;4.97;100.00;98420.56;5102228;27;20035;-79
2023/03/01 03:48:01;;;;;;;9.98;4.97;;;;;;;5.00;100.00;98428.44;5123694;27;20027;-78
2023/03/01 03:50:30;;;;;;;9.25;4.28;;;;;;;5.02;100.00;98426.59;5115243;27;20031;-79
2023/03/01 03:52:56;;;;;;;8.60;3.40;;;;;;;4.99;100.00;98424.03;5124532;27;20410;-80
2023/03/01 03:55:22;;;;;;;7.95;4.13;;;;;;;4.96;100.00;98429.41;5112380;27;20023;-79
2023/03/01 03:58:07;;;;;;;7.88;3.85;;;;;;;4.93;100.00;98423.28;5111260;27;20030;-79
2023/03/01 04:00:38;;;;;;;10.82;4.40;;;;;;;4.86;100.00;98421.69;5132650;27;20026;-82
2023/03/01 04:03:03;;;;;;;8.45;3.75;;;;;;;4.77;100.00;98418.41;5115303;27;20023;-82
2023/03/01 04:05:29;;;;;;;10.15;3.78;;;;;;;4.82;100.00;98417.41;5126986;27;20413;-82
2023/03/01 04:08:06;;;;;;;6.10;3.70;;;;;;;4.85;100.00;98419.97;5127101;27;20031;-81
2023/03/01 04:10:37;;;;;;;6.80;3.97;;;;;;;4.89;100.00;98426.91;5122120;27;20023;-82
2023/03/01 04:13:07;;;;;;;9.30;4.75;;;;;;;4.95;100.00;98427.69;5111595;27;20023;-81
2023/03/01 04:15:33;;;;;;;7.05;3.75;;;;;;;4.83;100.00;98413.81;5110849;27;20023;-81
2023/03/01 04:17:59;;;;;;;4.97;3.22;;;;;;;4.82;100.00;98414.75;5120069;27;20406;-81
2023/03/01 04:20:28;;;;;;;7.15;3.83;;;;;;;4.84;100.00;98426.19;5102979;27;20041;-81
2023/03/01 04:23:13;;;;;;;8.63;3.70;;;;;;;4.90;100.00;98426.03;5125514;27;20045;-81
2023/03/01 04:25:58;;;;;;;7.20;4.00;;;;;;;4.96;100.00;98426.75;5130649;27;20018;-82
2023/03/01 04:28:29;;;;;;;6.15;3.33;;;;;;;4.92;100.00;98418.88;5107344;27;20031;-82
2023/03/01 04:30:56;;;;;;;7.63;4.40;;;;;;;5.05;100.00;98421.22;5129809;27;20038;-81
2023/03/01 04:33:22;;;;;;;6.35;3.97;;;;;;;5.09;100.00;98417.59;5109362;27;20116;-81
2023/03/01 04:35:52;;;;;;;10.18;4.25;;;;;;;5.15;100.00;98420.94;5109523;27;20121;-85
2023/03/01 04:38:18;;;;;;;11.73;3.90;;;;;;;5.21;100.00;98419.91;5145763;27;20039;-84
2023/03/01 04:40:44;;;;;;;7.65;4.50;;;;;;;5.17;100.00;98402.38;5120047;27;20410;-82
2023/03/01 04:43:10;;;;;;;8.00;4.38;;;;;;;5.17;100.00;98412.97;5126662;27;20030;-90
2023/03/01 04:45:36;;;;;;;10.10;5.65;;;;;;;5.01;100.00;98393.06;5130184;27;20058;-82
2023/03/01 04:48:06;;;;;;;6.43;4.13;;;;;;;4.99;100.00;98390.44;5110055;27;20035;-83
2023/03/01 04:50:32;;;;;;;7.03;4.13;;;;;;;5.01;100.00;98390.41;5121765;27;20039;-83
2023/03/01 04:52:58;;;;;;;9.85;4.40;;;;;;;5.03;100.00;98384.16;5126261;27;20454;-82
2023/03/01 04:55:35;;;;;;;7.18;3.63;;;;;;;4.99;100.00;98384.25;5119024;27;20103;-83
2023/03/01 04:58:01;;;;;;;7.32;3.25;;;;;;;5.00;100.00;98375.41;5107473;27;20500;-82
2023/03/01 05:00:26;;;;;;;6.80;4.10;;;;;;;4.98;100.00;98375.47;5115538;27;20023;-82
2023/03/01 05:02:59;;;;;;;5.97;3.65;;;;;;;5.01;100.00;98379.81;5121793;27;20027;-82
2023/03/01 05:05:34;;;;;;;6.50;3.13;;;;;;;5.00;100.00;98372.75;5113734;27;20034;-82
2023/03/01 05:08:02;;;;;;;7.35;3.33;;;;;;;5.01;100.00;98370.09;5101848;28;20487;-81
2023/03/01 05:10:30;;;;;;;12.43;4.80;;;;;;;5.06;100.00;98367.28;5119972;27;20019;-82
2023/03/01 05:12:59;;;;;;;8.70;4.35;;;;;;;5.10;100.00;98364.53;5105111;28;20027;-82
2023/03/01 05:15:26;;;;;;;7.13;4.15;;;;;;;5.11;100.00;98360.06;5112935;28;20031;-80
2023/03/01 05:17:54;;;;;;;6.72;3.95;;;;;;;5.15;100.00;98364.41;5126456;28;20120;-79
2023/03/01 05:20:30;;;;;;;7.15;3.35;;;;;;;5.08;100.00;98360.16;5109881;28;20023;-82
2023/03/01 05:23:05;;;;;;;7.07;3.22;;;;;;;4.97;100.00;98362.25;5137172;27;20050;-86
2023/03/01 05:25:32;;;;;;;6.50;3.38;;;;;;;5.03;100.00;98367.38;5111385;28;20035;-80
2023/03/01 05:28:04;;;;;;;4.85;2.88;;;;;;;5.02;100.00;98370.94;5108846;28;20453;-87
2023/03/01 05:30:32;;;;;;;5.80;3.85;;;;;;;4.98;100.00;98364.00;5120366;28;20151;-80
2023/03/01 05:32:58;;;;;;;4.65;3.20;;;;;;;4.95;100.00;98353.47;5098678;28;20076;-83
2023/03/01 05:35:23;;;;;;;6.68;3.00;;;;;;;4.97;100.00;98356.94;5103795;28;20039;-81
2023/03/01 05:37:50;;;;;;;11.80;3.70;;;;;;;5.08;100.00;98369.00;5102771;28;20398;-81
2023/03/01 05:40:25;;;;;;;6.60;2.78;;;;;;;5.11;100.00;98360.94;5105951;28;20059;-82
2023/03/01 05:43:01;;;;;;;7.32;3.22;;;;;;;5.21;100.00;98378.34;5133150;28;20515;-80
2023/03/01 05:45:27;;;;;;;8.63;4.80;;;;;;;5.06;100.00;98354.03;5107745;28;20023;-83
2023/03/01 05:47:54;;;;;;;5.75;3.55;;;;;;;5.10;100.00;98368.97;5107283;27;20023;-82
2023/03/01 05:50:28;;;;;;;5.95;2.88;;;;;;;5.04;100.00;98355.88;5128985;27;20027;-82
2023/03/01 05:53:07;;;;;;;6.28;4.05;;;;;;;5.18;100.00;98373.13;5110397;27;20058;-82
2023/03/01 05:55:34;;;;;;;8.68;4.15;;;;;;;5.22;100.00;98358.03;5107224;27;20428;-82
2023/03/01 05:58:01;;;;;;;8.90;4.50;;;;;;;5.19;100.00;98358.09;5122609;27;20031;-83
2023/03/01 06:00:28;;;;;;;11.45;5.03;;;;;;;5.25;100.00;98373.84;5112090;27;20019;-81
2023/03/01 06:02:54;;;;;;;10.88;5.85;;;;;;;5.21;100.00;98358.91;5134279;27;20027;-82
2023/03/01 06:05:19;;;;;;;9.93;5.93;;;;;;;5.06;100.00;98344.31;5151918;27;20026;-80
2023/03/01 06:07:45;;;;;;;13.05;6.47;;;;;;;5.11;100.00;98360.94;5126922;27;20023;-82
2023/03/01 06:10:12;;;;;;;8.40;4.97;;;;;;;5.10;100.00;98363.66;5122773;27;20031;-82
2023/03/01 06:12:39;;;;;;;10.70;5.80;;;;;;;4.98;100.00;98358.69;5127888;27;20471;-82
2023/03/01 06:15:06;;;;;;;10.13;6.70;;;;;;;4.78;100.00;98343.31;5126242;27;20034;-82
2023/03/01 06:17:37;;;;;;;8.70;4.75;;;;;;;4.95;100.00;98372.03;5139705;27;20015;-82
2023/03/01 06:20:07;;;;;;;4.93;3.30;;;;;;;4.95;100.00;98353.47;5174481;27;20041;-82
2023/03/01 06:22:33;;;;;;;6.43;3.72;;;;;;;4.85;100.00;98364.31;5120825;27;20039;-82
2023/03/01 06:24:59;;;;;;;8.27;4.40;;;;;;;4.84;100.00;98359.03;5102449;27;20047;-82
2023/03/01 06:27:24;;;;;;;5.80;3.42;;;;;;;4.91;100.00;98373.88;5108759;27;20106;-83
2023/03/01 06:29:50;;;;;;;8.35;4.03;;;;;;;4.97;100.00;98371.06;5130645;27;20034;-82
2023/03/01 06:32:16;;;;;;;7.93;4.63;;;;;;;5.08;100.00;98378.72;5143683;27;20110;-82
2023/03/01 06:34:41;;;;;;;6.40;4.00;;;;;;;5.06;100.00;98365.53;5131247;27;20023;-82
2023/03/01 06:37:07;;;;;;;8.77;4.90;;;;;;;5.10;100.00;98372.50;5114030;27;20074;-83
2023/03/01 06:39:33;;;;;;;6.72;4.03;;;;;;;5.13;100.00;98367.09;5111260;27;20087;-83
2023/03/01 06:41:59;;;;;;;9.60;4.60;;;;;;;5.08;100.00;98361.03;5116126;27;20083;-83
2023/03/01 06:44:25;;;;;;;6.95;4.00;;;;;;;4.98;100.00;98342.78;5111086;27;20038;-81
2023/03/01 06:46:50;;;;;;;19.70;7.93;;;;;;;5.08;100.00;98362.81;5111156;27;20117;-82
2023/03/01 06:49:17;;;;;;;14.05;6.60;;;;;;;5.14;100.00;98354.69;5137546;27;20534;-82
2023/03/01 06:51:43;;;;;;;13.38;5.88;;;;;;;5.05;100.00;98344.34;5137613;27;20074;-82
2023/03/01 06:54:09;;;;;;;10.75;5.10;;;;;;;5.04;100.00;98335.53;5140026;27;20107;-82
2023/03/01 06:56:35;;;;;;;7.05;4.07;;;;;;;5.13;100.00;98326.44;5114450;27;20035;-83
2023/03/01 06:59:00;;;;;;;48.55;13.50;;;;;;;5.25;100.00;98336.72;5111568;27;20137;-81
2023/03/01 07:01:26;;;;;;;14.25;7.35;;;;;;;5.19;100.00;98329.81;5104780;27;20029;-83
2023/03/01 07:03:51;;;;;;;8.43;5.25;;;;;;;5.23;100.00;98317.34;5117299;27;20019;-82
2023/03/01 07:06:17;;;;;;;15.60;6.70;;;;;;;5.44;100.00;98314.06;5150476;27;20034;-82
2023/03/01 07:08:43;;;;;;;8.63;5.57;;;;;;;5.50;100.00;98303.25;5143843;27;20087;-82
2023/03/01 07:11:09;;;;;;;11.15;6.32;;;;;;;5.57;100.00;98311.91;5119556;27;20080;-81
2023/03/01 07:13:34;;;;;;;8.60;5.03;;;;;;;5.37;100.00;98309.84;5116863;27;20107;-82
2023/03/01 07:16:00;;;;;;;13.70;5.47;;;;;;;5.20;100.00;98285.59;5131169;27;20023;-81
2023/03/01 07:18:25;;;;;;;17.35;7.93;;;;;;;5.23;100.00;98288.16;5156836;27;20034;-81
2023/03/01 07:20:51;;;;;;;10.95;5.70;;;;;;;5.10;100.00;98292.06;5130795;27;20026;-81
2023/03/01 07:23:17;;;;;;;14.05;7.22;;;;;;;5.27;100.00;98290.66;5135394;27;20062;-82
2023/03/01 07:25:42;;;;;;;8.25;4.80;;;;;;;5.45;100.00;98298.09;5139828;27;20034;-81
2023/03/01 07:28:08;;;;;;;6.38;3.03;;;;;;;5.54;100.00;98293.44;5154399;27;20118;-81
2023/03/01 07:30:33;;;;;;;7.20;3.80;;;;;;;5.65;100.00;98283.34;5142746;27;20027;-81
2023/03/01 07:32:59;;;;;;;6.18;3.78;;;;;;;5.84;100.00;98285.41;5127077;27;20027;-82
2023/03/01 07:35:26;;;;;;;6.85;3.08;;;;;;;5.83;100.00;98269.50;5163371;27;20027;-81
2023/03/01 07:37:51;;;;;;;7.22;3.58;;;;;;;5.83;100.00;98243.84;5154392;27;20095;-81
2023/03/01 07:40:17;;;;;;;6.43;3.40;;;;;;;5.91;100.00;98248.91;5120306;27;20082;-81
2023/03/01 07:42:43;;;;;;;8.52;4.85;;;;;;;5.99;100.00;98241.59;5109202;27;20031;-81
2023/03/01 07:45:09;;;;;;;7.20;3.70;;;;;;;6.03;100.00;98237.06;5112971;27;20027;-81
2023/03/01 07:47:35;;;;;;;7.32;4.45;;;;;;;6.09;100.00;98248.31;5156727;27;20051;-82
2023/03/01 07:50:03;;;;;;;5.60;3.20;;;;;;;6.15;100.00;98236.66;5154081;27;20030;-81
2023/03/01 07:52:29;;;;;;;9.43;5.90;;;;;;;6.11;100.00;98222.59;5121526;27;20404;-82
2023/03/01 07:54:55;;;;;;;7.97;4.15;;;;;;;6.05;100.00;98211.31;5116158;27;20029;-83
2023/03/01 07:57:20;;;;;;;8.20;4.45;;;;;;;5.83;100.00;98211.97;5108404;27;20027;-82
2023/03/01 07:59:46;;;;;;;7.95;3.75;;;;;;;5.87;100.00;98215.44;5117566;27;20019;-80
2023/03/01 08:02:11;;;;;;;6.43;4.35;;;;;;;6.12;100.00;98215.50;5135162;27;20439;-83
2023/03/01 08:04:37;;;;;;;6.25;3.80;;;;;;;6.19;100.00;98217.88;5146744;27;20054;-83
2023/03/01 08:07:05;;;;;;;5.78;3.17;;;;;;;6.13;100.00;98206.59;5133526;27;20031;-82
2023/03/01 08:09:30;;;;;;;6.20;3.45;;;;;;;6.23;100.00;98202.72;5108911;27;20550;-85
2023/03/01 08:11:59;;;;;;;5.35;3.60;;;;;;;6.32;100.00;98186.47;5141599;27;20062;-82
2023/03/01 08:14:25;;;;;;;5.18;3.00;;;;;;;6.33;100.00;98190.88;5125271;27;20035;-82
2023/03/01 08:16:50;;;;;;;5.70;3.85;;;;;;;6.24;100.00;98186.75;5144301;27;20052;-82
2023/03/01 08:19:16;;;;;;;7.65;3.95;;;;;;;6.44;100.00;98186.03;5115516;27;20030;-82
2023/03/01 08:21:42;;;;;;;5.80;3.03;;;;;;;6.41;100.00;98181.69;5127908;27;20138;-82
2023/03/01 08:24:09;;;;;;;7.47;2.95;;;;;;;6.41;100.00;98176.38;5112654;27;20023;-82
2023/03/01 08:26:36;;;;;;;4.95;3.08;;;;;;;6.60;100.00;98181.03;5116844;27;20103;-82
2023/03/01 08:29:01;;;;;;;5.93;3.25;;;;;;;6.61;100.00;98167.72;5113748;27;20023;-82
2023/03/01 08:31:30;;;;;;;5.13;3.42;;;;;;;6.74;100.00;98162.78;5115405;27;20396;-81
2023/03/01 08:33:58;;;;;;;7.10;4.22;;;;;;;6.73;100.00;98161.94;5111989;27;20107;-83
2023/03/01 08:36:32;;;;;;;6.95;3.42;;;;;;;6.77;100.00;98163.53;5135147;27;20027;-82
2023/03/01 08:38:58;;;;;;;7.57;3.75;;;;;;;6.72;100.00;98160.19;5119900;27;20054;-82
2023/03/01 08:41:24;;;;;;;4.20;2.72;;;;;;;6.53;100.00;98137.88;5124858;27;20015;-81
2023/03/01 08:43:49;;;;;;;4.28;2.78;;;;;;;6.66;100.00;98149.78;5120120;27;20056;-81
2023/03/01 08:46:15;;;;;;;5.70;3.63;;;;;;;6.94;100.00;98155.81;5119257;28;20519;-81
2023/03/01 08:48:42;;;;;;;5.80;3.42;;;;;;;6.80;100.00;98139.50;5146781;27;20122;-81
2023/03/01 08:51:16;;;;;;;5.88;3.05;;;;;;;6.74;100.00;98136.19;5152396;27;20107;-81
2023/03/01 08:53:45;;;;;;;4.65;2.45;;;;;;;6.69;100.00;98127.53;5128337;27;20023;-80
2023/03/01 08:56:11;;;;;;;5.50;2.92;;;;;;;6.76;100.00;98134.38;5154934;27;20087;-81
2023/03/01 08:58:37;;;;;;;5.63;3.85;;;;;;;6.96;100.00;98142.44;5116828;27;20023;-81
2023/03/01 09:01:15;;;;;;;3.97;3.13;;;;;;;7.17;100.00;98130.97;5096916;27;20030;-76
2023/03/01 09:03:42;;;;;;;7.00;4.35;;;;;;;7.18;100.00;98115.91;5126084;27;20031;-76
2023/03/01 09:06:11;;;;;;;18.55;10.93;;;;;;;7.07;100.00;98129.63;5113030;27;20114;-74
2023/03/01 09:08:39;;;;;;;14.27;7.47;;;;;;;7.16;100.00;98125.75;5133587;27;20098;-82
2023/03/01 09:11:07;;;;;;;6.70;3.42;;;;;;;7.28;100.00;98134.09;5105220;28;20070;-80
2023/03/01 09:13:33;;;;;;;9.73;5.03;;;;;;;7.05;100.00;98129.69;5114684;27;20027;-81
2023/03/01 09:16:01;;;;;;;12.95;2.42;;;;;;;7.04;100.00;98119.94;5143744;27;20050;-82
2023/03/01 09:18:27;;;;;;;14.48;2.53;;;;;;;7.26;100.00;98132.44;5140585;28;20095;-81
2023/03/01 09:20:54;;;;;;;4.78;2.60;;;;;;;7.24;100.00;98102.34;5117225;28;20025;-81
2023/03/01 09:23:27;;;;;;;3.22;2.22;;;;;;;7.26;100.00;98114.66;5131576;27;20062;-81
2023/03/01 09:25:52;;;;;;;7.20;3.42;;;;;;;7.24;100.00;98113.00;5116558;27;20035;-81
2023/03/01 09:28:18;;;;;;;4.85;3.17;;;;;;;7.11;100.00;98088.66;5144064;27;20031;-81
2023/03/01 09:30:43;;;;;;;6.30;4.18;;;;;;;7.32;100.00;98110.91;5146792;27;20035;-80
2023/03/01 09:33:14;;;;;;;24.20;5.78;;;;;;;7.37;100.00;98106.25;5131547;27;20479;-80
2023/03/01 09:35:58;;;;;;;;;;;;;;;;;;;;;
2023/03/01 09:38:24;;;;;;;36.60;14.15;;;;;;;7.29;100.00;98097.72;5126700;27;20091;-81
2023/03/01 09:40:50;;;;;;;7.82;4.13;;;;;;;7.35;100.00;98097.47;5126907;27;20018;-81
2023/03/01 09:43:41;;;;;;;12.55;6.28;;;;;;;7.22;100.00;98085.59;5123611;27;20027;-81
2023/03/01 09:46:09;;;;;;;9.98;4.55;;;;;;;6.98;100.00;98077.63;5132267;27;20035;-80
2023/03/01 09:49:00;;;;;;;10.35;5.10;;;;;;;6.69;100.00;98085.00;5131145;27;20027;-81
2023/03/01 09:51:35;;;;;;;6.50;3.50;;;;;;;6.66;100.00;98085.13;5136424;27;20023;-80
2023/03/01 09:54:02;;;;;;;7.82;3.72;;;;;;;6.71;100.00;98076.03;5129790;27;20058;-81
2023/03/01 09:57:00;;;;;;;10.82;4.60;;;;;;;7.05;100.00;98094.22;5116760;27;20027;-81
2023/03/01 09:59:56;;;;;;;10.13;4.40;;;;;;;7.35;100.00;98087.69;5128261;27;20031;-81
2023/03/01 10:02:28;;;;;;;10.68;5.63;;;;;;;7.93;100.00;98079.94;5157499;27;20088;-81
2023/03/01 10:05:14;;;;;;;;;;;;;;;8.19;100.00;98067.22;5133778;27;20451;-80
2023/03/01 10:08:12;;;;;;;5.18;2.45;;;;;;;7.44;100.00;98039.44;5146344;27;19911;-80
2023/03/01 10:10:40;;;;;;;5.30;2.53;;;;;;;7.64;100.00;98054.53;5135377;27;20121;-80
2023/03/01 10:13:24;;;;;;;6.57;2.08;;;;;;;7.66;100.00;98043.84;5134402;27;20035;-80
2023/03/01 10:15:55;;;;;;;2.70;2.13;;;;;;;7.66;100.00;98034.03;5150169;27;20044;-80
2023/03/01 10:18:32;;;;;;;4.35;2.60;;;;;;;7.53;100.00;98051.47;5141947;27;20023;-79
2023/03/01 10:21:01;;;;;;;5.00;2.78;;;;;;;7.41;100.00;98044.84;5123124;27;20026;-79
2023/03/01 10:23:31;;;;;;;4.25;2.50;;;;;;;7.66;100.00;98042.03;5117322;27;20064;-80
2023/03/01 10:26:12;;;;;;;4.00;2.50;;;;;;;7.73;100.00;98047.97;5148399;27;20030;-79
2023/03/01 10:28:41;;;;;;;6.18;3.25;;;;;;;7.58;100.00;98046.81;5142228;27;20019;-79
2023/03/01 10:31:13;;;;;;;2.78;1.80;;;;;;;7.01;100.00;98034.97;5124654;27;20031;-78
2023/03/01 10:33:39;;;;;;;4.57;2.70;;;;;;;7.09;100.00;98040.88;5154173;27;20019;-80
2023/03/01 10:36:05;;;;;;;7.95;3.55;;;;;;;7.19;100.00;98054.66;5128139;27;20027;-79
2023/03/01 10:38:47;;;;;;;3.22;2.10;;;;;;;7.19;100.00;98048.47;5131868;27;20102;-80
2023/03/01 10:41:12;;;;;;;6.50;2.67;;;;;;;7.22;100.00;98053.66;5151692;27;20034;-80
2023/03/01 10:43:53;;;;;;;4.38;2.30;;;;;;;7.16;100.00;98051.25;5152303;27;20031;-80
2023/03/01 10:46:36;;;;;;;12.18;5.45;;;;;;;7.18;100.00;98057.38;5140921;27;20081;-80
2023/03/01 10:49:13;;;;;;;11.52;5.40;;;;;;;7.12;100.00;98057.63;5115200;27;20118;-80
2023/03/01 10:51:44;;;;;;;16.95;8.57;;;;;;;7.06;100.00;98054.28;5144213;27;20023;-80
2023/03/01 10:54:31;;;;;;;13.25;7.53;;;;;;;7.13;100.00;98040.75;5126415;27;20033;-80
2023/03/01 10:57:01;;;;;;;9.50;4.75;;;;;;;7.15;100.00;98031.75;5116879;27;20060;-80
2023/03/01 10:59:29;;;;;;;13.57;5.05;;;;;;;7.02;100.00;98042.03;5135195;27;20031;-81
2023/03/01 11:02:18;;;;;;;13.77;5.30;;;;;;;7.04;100.00;98053.47;5120327;27;20023;-80
2023/03/01 11:05:15;;;;;;;14.20;6.32;;;;;;;7.13;100.00;98048.72;5126550;28;20507;-80
2023/03/01 11:07:53;;;;;;;9.18;4.80;;;;;;;7.19;100.00;98033.38;5125920;28;20053;-80
2023/03/01 11:10:30;;;;;;;7.25;4.30;;;;;;;7.15;100.00;98029.09;5131688;27;20027;-79
2023/03/01 11:13:18;;;;;;;5.80;2.78;;;;;;;7.21;100.00;98033.31;5134799;27;20027;-79
2023/03/01 11:15:59;;;;;;;4.97;2.80;;;;;;;7.18;100.00;98026.31;5114583;27;20007;-80
2023/03/01 11:18:25;;;;;;;7.45;3.30;;;;;;;7.19;100.00;98013.88;5117598;27;20035;-80
2023/03/01 11:20:53;;;;;;;4.25;2.70;;;;;;;7.32;100.00;98028.44;5141879;27;20410;-80
2023/03/01 11:23:19;;;;;;;4.18;2.55;;;;;;;7.30;100.00;98015.16;5134845;27;20039;-79
2023/03/01 11:26:14;;;;;;;6.22;3.40;;;;;;;7.43;100.00;98008.41;5127186;27;20026;-80
2023/03/01 11:28:42;;;;;;;9.80;5.70;;;;;;;7.21;100.00;98015.56;5110870;27;20042;-80
2023/03/01 11:31:13;;;;;;;13.05;6.88;;;;;;;7.21;100.00;98026.19;5129485;27;20094;-80
2023/03/01 11:33:51;;;;;;;11.00;6.22;;;;;;;7.28;100.00;98018.81;5127618;27;20490;-78
2023/03/01 11:36:39;;;;;;;11.45;5.28;;;;;;;7.09;100.00;98016.06;5150915;27;20042;-79
2023/03/01 11:39:26;;;;;;;10.60;5.18;;;;;;;7.08;100.00;98009.00;5124612;27;20035;-80
2023/03/01 11:42:02;;;;;;;7.82;3.85;;;;;;;7.09;100.00;98005.41;5145659;27;20051;-80
2023/03/01 11:44:30;;;;;;;7.82;4.20;;;;;;;7.18;100.00;98001.50;5108526;27;20508;-82
2023/03/01 11:47:41;;;;;;;14.82;6.90;;;;;;;7.16;100.00;98017.53;5104043;27;20064;-80